If you wish to contribute or participate in the discussions about articles you are invited to join SKYbrary as a registered user

 Actions

Hayward Executive Airport

From SKYbrary Wiki

KHWD
Airport
ICAO: KHWD
Summary
Name Hayward Executive Airport
Region North America
Territory United States US.gif
Location Hayward, Alameda County, California
Serving
Coordinates 37° 39' 31.99" N, 122° 7' 18.45" W
Runways
Designator Length Width Surface ROPS
10L/28R 947 m3,106.955 ft
23 m75.459 ft
ASP yes/yes
10R/28L 1736 m5,695.538 ft
46 m150.919 ft
ASP yes/yes


METAR
Observation KHWD 142354Z 28012KT 10SM CLR 23/14 A2989 RMK AO2 SLP131 T02330144 10261 20233 55008
Station Hayward, Hayward Air Terminal
Date/Time 14 September 2019 23:54:00
Wind direction 280°
Wind speed 12 kts
Lowest cloud amount n/a
Temperature 23.3°C
Dew point 14.4°C
Humidity 57%
QNH hPa
Weather condition n/a

Hayward Executive Airport

ICAO: KHWD IATA: HWD

Description

Hayward Executive Airport is a city owned, public use airport located two nautical miles (4 km) west of the central business district of Hayward, a city in Alameda County, California, United States. This general aviation towered airport is situated near the eastern shore of San Francisco Bay. It was formerly known as Hayward Air Terminal.

Climatology

Maps

Terrain

Loading map...

Airport Layout

Loading map...


Accidents & Serious Incidents at or in vicinity of KHWD

None on SKYbrary